Weather History for KSHL - December, 2013

Change the Weather History Date:

Wednesday, December 4, 2013

  Actual Average Record
Temperature  
Mean Temperature 18 °F -  
Max Temperature 28 °F 33 °F 55 °F (1998)
Min Temperature 8 °F 15 °F -10 °F (1978)
Degree Days  
Heating Degree Days 47    
Moisture  
Dew Point 17 °F    
Average Humidity 88    
Maximum Humidity 100    
Minimum Humidity 73    
Precipitation  
Precipitation 0.00 in - - ()
Sea Level Pressure  
Sea Level Pressure 29.68 in    
Wind  
Wind Speed 13 mph (NW)    
Max Wind Speed 30 mph    
Max Gust Speed 37 mph    
Visibility 7 miles    
Events Rain , Snow    
Averages and records for this station are not official NWS values.
T = Trace of Precipitation, MM = Missing Value Source: NWS Daily Summary

Daily Weather History Graph

Daily Weather History Graph

Search for Another Location

Airport or City:

Trip Planner

Search our weather history database for the weather conditions in past years. The results will help you decide how hot, cold, wet, or windy it might be!

Date:

Astronomy

Dec. 04, 2013 Rise Set
Actual Time 7:38 AM CST 4:48 PM CST
Civil Twilight 7:06 AM CST 5:20 PM CST
Nautical Twilight 6:31 AM CST 5:55 PM CST
Astronomical Twilight 5:56 AM CST 6:30 PM CST
Moon 9:06 AM CST (12/4) 7:01 PM CST (12/4)
Length of Visible Light 10h 13m
Length of Day
9h 09m
Waxing Crescent, 4% of the Moon is Illuminated
Dec 4
Waxing Crescent
Dec 9
First Quarter
Dec 17
Full
Dec 25
Last Quarter
Jan 1
New

Hourly Weather History & Observations

Time (CST) Temp. Windchill Dew Point Humidity Pressure Visibility Wind Dir Wind Speed Gust Speed Precip Events Conditions
12:15 AM 28.4 °F 21.2 °F 28.4 °F 100% 29.69 in 7.0 mi North 6.9 mph - N/A   Overcast
12:35 AM 28.4 °F 22.2 °F 28.4 °F 100% 29.68 in 8.0 mi North 5.8 mph - N/A   Overcast
12:55 AM 28.4 °F 22.2 °F 28.4 °F 100% 29.69 in 7.0 mi NNW 5.8 mph - N/A   Overcast
1:15 AM 28.4 °F 20.4 °F 28.4 °F 100% 29.69 in 7.0 mi NNW 8.1 mph - N/A   Overcast
1:35 AM 28.4 °F 19.7 °F 28.4 °F 100% 29.70 in 6.0 mi NNW 9.2 mph - N/A   Overcast
1:55 AM 28.4 °F 19.7 °F 28.4 °F 100% 29.68 in 5.0 mi NNW 9.2 mph - N/A   Overcast
2:15 AM 28.4 °F 19.7 °F 28.4 °F 100% 29.66 in 5.0 mi North 9.2 mph - N/A   Overcast
2:35 AM 28.4 °F 19.1 °F 28.4 °F 100% 29.67 in 4.0 mi NNW 10.4 mph - N/A   Overcast
2:55 AM 28.4 °F 18.0 °F 26.6 °F 93% 29.67 in 4.0 mi NNW 12.7 mph - N/A   Overcast
3:15 AM 28.4 °F 18.5 °F 26.6 °F 93% 29.65 in 4.0 mi North 11.5 mph - N/A   Overcast
3:35 AM 28.4 °F 19.7 °F 26.6 °F 93% 29.64 in 2.5 mi North 9.2 mph - N/A   Overcast
3:55 AM 28.4 °F 21.2 °F 26.6 °F 93% 29.64 in 2.5 mi NNW 6.9 mph - N/A   Overcast
4:15 AM 28.4 °F - 26.6 °F 93% 29.64 in 4.0 mi North - - N/A   Overcast
4:35 AM 26.6 °F 16.2 °F 26.6 °F 100% 29.64 in 6.0 mi NNW 11.5 mph - N/A   Overcast
4:55 AM 26.6 °F 14.7 °F 24.8 °F 93% 29.62 in 6.0 mi NNW 15.0 mph - N/A   Overcast
5:15 AM 26.6 °F 16.2 °F 24.8 °F 93% 29.64 in 5.0 mi NNW 11.5 mph 19.6 mph N/A   Overcast
5:35 AM 26.6 °F 15.2 °F 24.8 °F 93% 29.64 in 3.0 mi NNW 13.8 mph - N/A   Overcast
5:55 AM 26.6 °F 15.2 °F 24.8 °F 93% 29.64 in - NNW 13.8 mph - N/A   Light Freezing Rain
6:15 AM 26.6 °F 16.2 °F 24.8 °F 93% 29.63 in 2.0 mi NNW 11.5 mph 18.4 mph N/A Snow Light Snow
6:35 AM 26.6 °F 16.8 °F 24.8 °F 93% 29.63 in 2.5 mi NNW 10.4 mph - N/A Snow Light Snow
6:55 AM 26.6 °F 18.2 °F 24.8 °F 93% 29.62 in 3.0 mi NNW 8.1 mph - N/A Snow Light Snow
7:15 AM 24.8 °F 15.3 °F 24.8 °F 100% 29.61 in 2.0 mi NNW 9.2 mph - N/A Snow Light Snow
7:35 AM 24.8 °F 16.1 °F 24.8 °F 100% 29.60 in 1.0 mi NNW 8.1 mph - N/A Snow Light Snow
7:55 AM 24.8 °F 16.1 °F 24.8 °F 100% 29.59 in 0.8 mi NNW 8.1 mph - N/A Snow Light Snow
8:15 AM 24.8 °F 16.1 °F 24.8 °F 100% 29.59 in 0.8 mi NW 8.1 mph - N/A Snow Light Snow
8:35 AM 24.8 °F 14.6 °F 24.8 °F 100% 29.58 in 0.8 mi NW 10.4 mph - N/A Snow Light Snow
8:55 AM 24.8 °F 14.0 °F 24.8 °F 100% 29.60 in 1.0 mi WNW 11.5 mph - N/A Snow Light Snow
9:15 AM 24.8 °F 14.0 °F 21.2 °F 86% 29.61 in 1.8 mi WNW 11.5 mph 19.6 mph N/A Snow Light Snow
9:35 AM 23.0 °F 11.1 °F 21.2 °F 93% 29.61 in 3.0 mi WNW 12.7 mph - N/A Snow Light Snow
9:55 AM 23.0 °F 11.1 °F 21.2 °F 93% 29.61 in 5.0 mi WNW 12.7 mph 19.6 mph N/A   Overcast
10:15 AM 21.2 °F 7.8 °F 19.4 °F 93% 29.62 in 9.0 mi West 15.0 mph - N/A Rain Light Freezing Rain
10:35 AM 21.2 °F 6.8 °F 19.4 °F 93% 29.62 in 8.0 mi WNW 17.3 mph 23.0 mph N/A Snow Light Snow
10:55 AM 21.2 °F 7.8 °F 17.6 °F 86% 29.62 in 8.0 mi WNW 15.0 mph 23.0 mph N/A   Overcast
11:15 AM 21.2 °F 7.8 °F 17.6 °F 86% 29.59 in 3.0 mi WNW 15.0 mph 23.0 mph N/A   Light Freezing Rain
11:35 AM 19.4 °F 5.5 °F 17.6 °F 93% 29.58 in 5.0 mi WNW 15.0 mph 23.0 mph N/A   Overcast
11:55 AM 19.4 °F 3.6 °F 17.6 °F 93% 29.59 in 6.0 mi WNW 19.6 mph - N/A Rain Light Freezing Rain
12:15 PM 19.4 °F 4.5 °F 17.6 °F 93% 29.59 in 1.8 mi WNW 17.3 mph 24.2 mph N/A Snow Light Snow
12:35 PM 19.4 °F 4.1 °F 17.6 °F 93% 29.58 in 1.8 mi WNW 18.4 mph 25.3 mph N/A Rain Light Freezing Rain
12:55 PM 19.4 °F 5.0 °F 15.8 °F 86% 29.59 in 7.0 mi WNW 16.1 mph 24.2 mph N/A Snow Light Snow
1:15 PM 19.4 °F 4.1 °F 15.8 °F 86% 29.60 in 6.0 mi West 18.4 mph - N/A Rain Light Freezing Rain
1:35 PM 19.4 °F 3.2 °F 15.8 °F 86% 29.59 in 5.0 mi WNW 20.7 mph 27.6 mph N/A   Mostly Cloudy
1:55 PM 17.6 °F 1.3 °F 14.0 °F 86% 29.59 in 8.0 mi WNW 19.6 mph - N/A   Overcast
2:15 PM 17.6 °F 1.3 °F 14.0 °F 86% 29.58 in 10.0 mi WNW 19.6 mph 25.3 mph N/A   Overcast
2:35 PM 17.6 °F 0.9 °F 14.0 °F 86% 29.61 in 10.0 mi WNW 20.7 mph 27.6 mph N/A   Overcast
2:55 PM 17.6 °F 1.7 °F 14.0 °F 86% 29.60 in 10.0 mi WNW 18.4 mph - N/A   Overcast
3:15 PM 17.6 °F 2.2 °F 14.0 °F 86% 29.62 in 10.0 mi West 17.3 mph 25.3 mph N/A   Overcast
3:35 PM 15.8 °F -2.3 °F 12.2 °F 86% 29.65 in 10.0 mi West 23.0 mph - N/A   Overcast
3:55 PM 15.8 °F -2.3 °F 12.2 °F 86% 29.67 in 10.0 mi West 23.0 mph 32.2 mph N/A   Overcast
4:15 PM 15.8 °F -1.9 °F 10.4 °F 79% 29.65 in 9.0 mi WNW 21.9 mph 32.2 mph N/A Snow Light Snow
4:35 PM 15.8 °F -0.6 °F 10.4 °F 79% 29.66 in 10.0 mi WNW 18.4 mph 25.3 mph N/A Snow Light Snow
4:55 PM 15.8 °F 0.9 °F 12.2 °F 86% 29.67 in 10.0 mi WNW 15.0 mph 24.2 mph N/A   Overcast
5:15 PM 15.8 °F -0.2 °F 10.4 °F 79% 29.68 in 10.0 mi WNW 17.3 mph 26.5 mph N/A   Overcast
5:35 PM 15.8 °F -2.7 °F 10.4 °F 79% 29.69 in 10.0 mi WNW 24.2 mph 31.1 mph N/A   Overcast
5:55 PM 15.8 °F -2.3 °F 10.4 °F 79% 29.71 in 10.0 mi WNW 23.0 mph 31.1 mph N/A   Overcast
6:15 PM 15.8 °F -1.5 °F 10.4 °F 79% 29.72 in 10.0 mi WNW 20.7 mph 32.2 mph N/A Snow Light Snow
6:35 PM 15.8 °F -1.9 °F 10.4 °F 79% 29.74 in 10.0 mi WNW 21.9 mph 31.1 mph N/A Rain Light Freezing Rain
6:55 PM 15.8 °F -2.7 °F 8.6 °F 73% 29.73 in 10.0 mi WNW 24.2 mph 34.5 mph N/A   Overcast
7:15 PM 14.0 °F -6.2 °F 8.6 °F 79% 29.73 in 9.0 mi NW 27.6 mph 34.5 mph N/A Rain Light Freezing Rain
7:35 PM 14.0 °F -5.8 °F 8.6 °F 79% 29.75 in 10.0 mi NW 26.5 mph 34.5 mph N/A   Overcast
7:55 PM 14.0 °F -5.5 °F 8.6 °F 79% 29.75 in 8.0 mi NW 25.3 mph 33.4 mph N/A Snow Light Snow
8:15 PM 12.2 °F -9.3 °F 6.8 °F 79% 29.77 in 7.0 mi NW 29.9 mph 35.7 mph N/A Snow Light Snow
8:35 PM 12.2 °F -7.9 °F 6.8 °F 79% 29.77 in 10.0 mi WNW 25.3 mph 33.4 mph N/A   Overcast
8:55 PM 10.4 °F -9.1 °F 5.0 °F 79% 29.80 in 10.0 mi WNW 21.9 mph 33.4 mph N/A Rain Light Freezing Rain
9:15 PM 10.4 °F -10.7 °F 3.2 °F 73% 29.82 in 10.0 mi NW 26.5 mph 34.5 mph N/A   Overcast
9:35 PM 10.4 °F -10.3 °F 3.2 °F 73% 29.83 in 8.0 mi WNW 25.3 mph 33.4 mph N/A Rain Light Freezing Rain
9:55 PM 10.4 °F -8.2 °F 3.2 °F 73% 29.83 in 10.0 mi WNW 19.6 mph 28.8 mph N/A   Overcast
10:15 PM 8.6 °F -13.4 °F 3.2 °F 79% 29.83 in 10.0 mi WNW 27.6 mph 36.8 mph N/A Snow Light Snow
10:35 PM 8.6 °F -10.5 °F 3.2 °F 79% 29.87 in 10.0 mi WNW 19.6 mph 29.9 mph N/A   Overcast
10:55 PM 8.6 °F -10.5 °F 1.4 °F 73% 29.89 in 10.0 mi WNW 19.6 mph 28.8 mph N/A   Overcast
11:15 PM 8.6 °F -9.5 °F 1.4 °F 73% 29.89 in 10.0 mi WNW 17.3 mph 31.1 mph N/A   Overcast
11:35 PM 8.6 °F -10.0 °F 1.4 °F 73% 29.89 in 10.0 mi WNW 18.4 mph 27.6 mph N/A   Overcast
11:55 PM 8.6 °F -10.5 °F 1.4 °F 73% 29.90 in 10.0 mi WNW 19.6 mph 26.5 mph N/A   Overcast